sensor_id;sensor_type;location;lat;lon;timestamp;temperature;humidity
7576;DHT22;3829;50.798;4.358;2023-03-20T00:00:34;5.70;99.90
7576;DHT22;3829;50.798;4.358;2023-03-20T00:03:00;5.60;99.90
7576;DHT22;3829;50.798;4.358;2023-03-20T00:05:27;5.60;99.90
7576;DHT22;3829;50.798;4.358;2023-03-20T00:07:55;5.50;99.90
7576;DHT22;3829;50.798;4.358;2023-03-20T00:10:25;5.60;99.90
7576;DHT22;3829;50.798;4.358;2023-03-20T00:12:52;5.50;99.90
7576;DHT22;3829;50.798;4.358;2023-03-20T00:15:34;5.40;99.90
7576;DHT22;3829;50.798;4.358;2023-03-20T00:18:00;5.50;99.90
7576;DHT22;3829;50.798;4.358;2023-03-20T00:20:26;5.50;99.90
7576;DHT22;3829;50.798;4.358;2023-03-20T00:22:52;5.50;99.90
7576;DHT22;3829;50.798;4.358;2023-03-20T00:25:22;5.50;99.90
7576;DHT22;3829;50.798;4.358;2023-03-20T00:27:49;5.40;99.90
7576;DHT22;3829;50.798;4.358;2023-03-20T00:30:19;5.40;99.90
7576;DHT22;3829;50.798;4.358;2023-03-20T00:32:48;5.50;99.90
7576;DHT22;3829;50.798;4.358;2023-03-20T00:35:27;5.60;99.90
7576;DHT22;3829;50.798;4.358;2023-03-20T00:37:53;5.70;99.90
7576;DHT22;3829;50.798;4.358;2023-03-20T00:40:20;5.80;99.90
7576;DHT22;3829;50.798;4.358;2023-03-20T00:42:50;6.00;99.90
7576;DHT22;3829;50.798;4.358;2023-03-20T00:45:21;6.10;99.90
7576;DHT22;3829;50.798;4.358;2023-03-20T00:47:49;6.30;99.90
7576;DHT22;3829;50.798;4.358;2023-03-20T00:50:24;6.30;99.90
7576;DHT22;3829;50.798;4.358;2023-03-20T00:52:50;6.30;99.90
7576;DHT22;3829;50.798;4.358;2023-03-20T00:55:22;6.40;99.90
7576;DHT22;3829;50.798;4.358;2023-03-20T00:57:53;6.50;99.90
7576;DHT22;3829;50.798;4.358;2023-03-20T01:02:53;6.50;99.90
7576;DHT22;3829;50.798;4.358;2023-03-20T01:05:20;6.70;99.90
7576;DHT22;3829;50.798;4.358;2023-03-20T01:07:46;6.70;99.90
7576;DHT22;3829;50.798;4.358;2023-03-20T01:10:12;6.70;99.90
7576;DHT22;3829;50.798;4.358;2023-03-20T01:12:39;6.70;99.90
7576;DHT22;3829;50.798;4.358;2023-03-20T01:15:15;6.90;99.90
7576;DHT22;3829;50.798;4.358;2023-03-20T01:17:41;6.80;99.90
7576;DHT22;3829;50.798;4.358;2023-03-20T01:20:22;6.80;99.90
7576;DHT22;3829;50.798;4.358;2023-03-20T01:22:48;7.00;99.90
7576;DHT22;3829;50.798;4.358;2023-03-20T01:25:14;7.00;99.90
7576;DHT22;3829;50.798;4.358;2023-03-20T01:27:42;7.00;99.90
7576;DHT22;3829;50.798;4.358;2023-03-20T01:30:18;7.20;99.90
7576;DHT22;3829;50.798;4.358;2023-03-20T01:32:44;7.10;99.90
7576;DHT22;3829;50.798;4.358;2023-03-20T01:35:16;7.10;99.90
7576;DHT22;3829;50.798;4.358;2023-03-20T01:37:43;7.20;99.90
7576;DHT22;3829;50.798;4.358;2023-03-20T01:42:57;7.30;99.90
7576;DHT22;3829;50.798;4.358;2023-03-20T01:45:27;7.40;99.90
7576;DHT22;3829;50.798;4.358;2023-03-20T01:47:53;7.50;99.90
7576;DHT22;3829;50.798;4.358;2023-03-20T01:50:27;7.40;99.90
7576;DHT22;3829;50.798;4.358;2023-03-20T01:55:55;7.30;99.90
7576;DHT22;3829;50.798;4.358;2023-03-20T01:58:30;7.30;99.90
7576;DHT22;3829;50.798;4.358;2023-03-20T02:00:58;7.30;99.90
7576;DHT22;3829;50.798;4.358;2023-03-20T02:03:24;7.30;99.90
7576;DHT22;3829;50.798;4.358;2023-03-20T02:05:50;7.30;99.90
7576;DHT22;3829;50.798;4.358;2023-03-20T02:10:48;7.30;99.90
7576;DHT22;3829;50.798;4.358;2023-03-20T02:13:15;7.20;99.90
7576;DHT22;3829;50.798;4.358;2023-03-20T02:16:11;7.20;99.90
7576;DHT22;3829;50.798;4.358;2023-03-20T02:18:38;7.30;99.90
7576;DHT22;3829;50.798;4.358;2023-03-20T02:21:41;7.30;99.90
7576;DHT22;3829;50.798;4.358;2023-03-20T02:41:42;7.20;99.90
7576;DHT22;3829;50.798;4.358;2023-03-20T02:44:36;7.10;99.90
7576;DHT22;3829;50.798;4.358;2023-03-20T02:47:34;7.10;99.90
7576;DHT22;3829;50.798;4.358;2023-03-20T02:50:12;7.20;99.90
7576;DHT22;3829;50.798;4.358;2023-03-20T02:53:05;7.10;99.90
7576;DHT22;3829;50.798;4.358;2023-03-20T02:55:38;7.00;99.90
7576;DHT22;3829;50.798;4.358;2023-03-20T02:58:18;6.90;99.90
7576;DHT22;3829;50.798;4.358;2023-03-20T03:03:31;6.80;99.90
7576;DHT22;3829;50.798;4.358;2023-03-20T03:06:04;6.80;99.90
7576;DHT22;3829;50.798;4.358;2023-03-20T03:08:35;6.80;99.90
7576;DHT22;3829;50.798;4.358;2023-03-20T03:11:07;6.80;99.90
7576;DHT22;3829;50.798;4.358;2023-03-20T03:13:36;6.80;99.90
7576;DHT22;3829;50.798;4.358;2023-03-20T03:16:08;6.80;99.90
7576;DHT22;3829;50.798;4.358;2023-03-20T03:18:36;6.80;99.90
7576;DHT22;3829;50.798;4.358;2023-03-20T03:21:04;6.70;99.90
7576;DHT22;3829;50.798;4.358;2023-03-20T03:23:44;6.80;99.90
7576;DHT22;3829;50.798;4.358;2023-03-20T03:26:17;6.80;99.90
7576;DHT22;3829;50.798;4.358;2023-03-20T03:28:47;6.80;99.90
7576;DHT22;3829;50.798;4.358;2023-03-20T03:31:16;6.80;99.90
7576;DHT22;3829;50.798;4.358;2023-03-20T03:33:45;6.70;99.90
7576;DHT22;3829;50.798;4.358;2023-03-20T03:36:24;6.70;99.90
7576;DHT22;3829;50.798;4.358;2023-03-20T03:41:36;6.50;99.90
7576;DHT22;3829;50.798;4.358;2023-03-20T03:44:22;6.50;99.90
7576;DHT22;3829;50.798;4.358;2023-03-20T03:47:05;6.60;99.90
7576;DHT22;3829;50.798;4.358;2023-03-20T03:49:35;6.60;99.90
7576;DHT22;3829;50.798;4.358;2023-03-20T03:52:09;6.70;99.90
7576;DHT22;3829;50.798;4.358;2023-03-20T03:54:48;6.70;99.90
7576;DHT22;3829;50.798;4.358;2023-03-20T03:57:21;6.80;99.90
7576;DHT22;3829;50.798;4.358;2023-03-20T03:59:50;6.70;99.90
7576;DHT22;3829;50.798;4.358;2023-03-20T04:02:17;6.70;99.90
7576;DHT22;3829;50.798;4.358;2023-03-20T04:04:48;6.70;99.90
7576;DHT22;3829;50.798;4.358;2023-03-20T04:07:14;6.70;99.90
7576;DHT22;3829;50.798;4.358;2023-03-20T04:09:40;6.80;99.90
7576;DHT22;3829;50.798;4.358;2023-03-20T04:14:52;6.70;99.90
7576;DHT22;3829;50.798;4.358;2023-03-20T04:17:17;6.70;99.90
7576;DHT22;3829;50.798;4.358;2023-03-20T04:19:43;6.70;99.90
7576;DHT22;3829;50.798;4.358;2023-03-20T04:22:09;6.80;99.90
7576;DHT22;3829;50.798;4.358;2023-03-20T04:24:34;6.70;99.90
7576;DHT22;3829;50.798;4.358;2023-03-20T04:27:00;6.70;99.90
7576;DHT22;3829;50.798;4.358;2023-03-20T04:29:25;6.70;99.90
7576;DHT22;3829;50.798;4.358;2023-03-20T04:31:51;6.80;99.90
7576;DHT22;3829;50.798;4.358;2023-03-20T04:34:16;6.80;99.90
7576;DHT22;3829;50.798;4.358;2023-03-20T04:36:43;6.80;99.90
7576;DHT22;3829;50.798;4.358;2023-03-20T04:39:09;6.80;99.90
7576;DHT22;3829;50.798;4.358;2023-03-20T04:41:35;6.80;99.90
7576;DHT22;3829;50.798;4.358;2023-03-20T04:44:01;6.80;99.90
7576;DHT22;3829;50.798;4.358;2023-03-20T04:46:26;6.80;99.90
7576;DHT22;3829;50.798;4.358;2023-03-20T04:48:52;7.00;99.90
7576;DHT22;3829;50.798;4.358;2023-03-20T04:51:17;7.00;99.90
7576;DHT22;3829;50.798;4.358;2023-03-20T04:53:43;6.90;99.90
7576;DHT22;3829;50.798;4.358;2023-03-20T04:56:08;6.90;99.90
7576;DHT22;3829;50.798;4.358;2023-03-20T04:58:34;6.80;99.90
7576;DHT22;3829;50.798;4.358;2023-03-20T05:01:00;6.80;99.90
7576;DHT22;3829;50.798;4.358;2023-03-20T05:03:26;6.80;99.90
7576;DHT22;3829;50.798;4.358;2023-03-20T05:05:52;6.90;99.90
7576;DHT22;3829;50.798;4.358;2023-03-20T05:08:17;6.90;99.90
7576;DHT22;3829;50.798;4.358;2023-03-20T05:10:43;7.00;99.90
7576;DHT22;3829;50.798;4.358;2023-03-20T05:13:09;6.90;99.90
7576;DHT22;3829;50.798;4.358;2023-03-20T05:15:34;7.10;99.90
7576;DHT22;3829;50.798;4.358;2023-03-20T05:18:00;7.10;99.90
7576;DHT22;3829;50.798;4.358;2023-03-20T05:20:26;7.10;99.90
7576;DHT22;3829;50.798;4.358;2023-03-20T05:22:51;7.10;99.90
7576;DHT22;3829;50.798;4.358;2023-03-20T05:25:17;7.20;99.90
7576;DHT22;3829;50.798;4.358;2023-03-20T05:27:44;7.10;99.90
7576;DHT22;3829;50.798;4.358;2023-03-20T05:30:11;7.00;99.90
7576;DHT22;3829;50.798;4.358;2023-03-20T05:32:37;7.10;99.90
7576;DHT22;3829;50.798;4.358;2023-03-20T05:35:03;7.10;99.90
7576;DHT22;3829;50.798;4.358;2023-03-20T05:37:29;7.00;99.90
7576;DHT22;3829;50.798;4.358;2023-03-20T05:39:55;7.10;99.90
7576;DHT22;3829;50.798;4.358;2023-03-20T05:42:20;7.10;99.90
7576;DHT22;3829;50.798;4.358;2023-03-20T05:44:46;7.10;99.90
7576;DHT22;3829;50.798;4.358;2023-03-20T05:47:11;7.10;99.90
7576;DHT22;3829;50.798;4.358;2023-03-20T05:49:37;7.10;99.90
7576;DHT22;3829;50.798;4.358;2023-03-20T05:52:03;7.10;99.90
7576;DHT22;3829;50.798;4.358;2023-03-20T05:54:28;7.30;99.90
7576;DHT22;3829;50.798;4.358;2023-03-20T05:56:54;7.20;99.90
7576;DHT22;3829;50.798;4.358;2023-03-20T05:59:20;7.20;99.90
7576;DHT22;3829;50.798;4.358;2023-03-20T06:01:45;7.30;99.90
7576;DHT22;3829;50.798;4.358;2023-03-20T06:04:11;7.30;99.90
7576;DHT22;3829;50.798;4.358;2023-03-20T06:06:37;7.40;99.90
7576;DHT22;3829;50.798;4.358;2023-03-20T06:09:03;7.30;99.90
7576;DHT22;3829;50.798;4.358;2023-03-20T06:11:29;7.40;99.90
7576;DHT22;3829;50.798;4.358;2023-03-20T06:13:55;7.40;99.90
7576;DHT22;3829;50.798;4.358;2023-03-20T06:16:22;7.40;99.90
7576;DHT22;3829;50.798;4.358;2023-03-20T06:18:48;7.50;99.90
7576;DHT22;3829;50.798;4.358;2023-03-20T06:21:13;7.60;99.90
7576;DHT22;3829;50.798;4.358;2023-03-20T06:23:39;7.70;99.90
7576;DHT22;3829;50.798;4.358;2023-03-20T06:26:05;7.60;99.90
7576;DHT22;3829;50.798;4.358;2023-03-20T06:28:31;7.60;99.90
7576;DHT22;3829;50.798;4.358;2023-03-20T06:30:57;7.70;99.90
7576;DHT22;3829;50.798;4.358;2023-03-20T06:33:23;7.70;99.90
7576;DHT22;3829;50.798;4.358;2023-03-20T06:35:48;7.70;99.90
7576;DHT22;3829;50.798;4.358;2023-03-20T06:38:14;7.90;99.90
7576;DHT22;3829;50.798;4.358;2023-03-20T06:40:41;7.80;99.90
7576;DHT22;3829;50.798;4.358;2023-03-20T06:43:07;7.80;99.90
7576;DHT22;3829;50.798;4.358;2023-03-20T06:45:33;7.80;99.90
7576;DHT22;3829;50.798;4.358;2023-03-20T06:47:59;7.70;99.90
7576;DHT22;3829;50.798;4.358;2023-03-20T06:50:24;7.60;99.90
7576;DHT22;3829;50.798;4.358;2023-03-20T06:52:50;7.50;99.90
7576;DHT22;3829;50.798;4.358;2023-03-20T06:55:16;7.30;99.90
7576;DHT22;3829;50.798;4.358;2023-03-20T06:57:42;7.30;99.90
7576;DHT22;3829;50.798;4.358;2023-03-20T07:00:08;7.30;99.90
7576;DHT22;3829;50.798;4.358;2023-03-20T07:02:34;7.30;99.90
7576;DHT22;3829;50.798;4.358;2023-03-20T07:05:00;7.40;99.90
7576;DHT22;3829;50.798;4.358;2023-03-20T07:07:26;7.50;99.90
7576;DHT22;3829;50.798;4.358;2023-03-20T07:09:51;7.70;99.90
7576;DHT22;3829;50.798;4.358;2023-03-20T07:12:17;7.70;99.90
7576;DHT22;3829;50.798;4.358;2023-03-20T07:14:45;7.60;99.90
7576;DHT22;3829;50.798;4.358;2023-03-20T07:17:11;7.70;99.90
7576;DHT22;3829;50.798;4.358;2023-03-20T07:19:37;7.70;99.90
7576;DHT22;3829;50.798;4.358;2023-03-20T07:22:07;7.70;99.90
7576;DHT22;3829;50.798;4.358;2023-03-20T07:24:34;7.90;99.90
7576;DHT22;3829;50.798;4.358;2023-03-20T07:26:59;7.90;99.90
7576;DHT22;3829;50.798;4.358;2023-03-20T07:29:25;8.20;99.90
7576;DHT22;3829;50.798;4.358;2023-03-20T07:31:51;8.10;99.90
7576;DHT22;3829;50.798;4.358;2023-03-20T07:34:17;8.20;99.90
7576;DHT22;3829;50.798;4.358;2023-03-20T07:36:42;8.20;99.90
7576;DHT22;3829;50.798;4.358;2023-03-20T07:39:09;8.40;99.90
7576;DHT22;3829;50.798;4.358;2023-03-20T07:41:35;8.50;99.90
7576;DHT22;3829;50.798;4.358;2023-03-20T07:44:01;8.70;99.90
7576;DHT22;3829;50.798;4.358;2023-03-20T07:46:26;8.80;99.90
7576;DHT22;3829;50.798;4.358;2023-03-20T07:48:52;8.70;99.90
7576;DHT22;3829;50.798;4.358;2023-03-20T07:51:18;8.70;99.90
7576;DHT22;3829;50.798;4.358;2023-03-20T07:53:43;8.80;99.90
7576;DHT22;3829;50.798;4.358;2023-03-20T07:56:09;8.80;99.90
7576;DHT22;3829;50.798;4.358;2023-03-20T07:58:35;9.00;99.90
7576;DHT22;3829;50.798;4.358;2023-03-20T08:01:00;9.00;99.90
7576;DHT22;3829;50.798;4.358;2023-03-20T08:03:28;9.10;99.90
7576;DHT22;3829;50.798;4.358;2023-03-20T08:05:53;9.10;99.90
7576;DHT22;3829;50.798;4.358;2023-03-20T08:08:20;9.10;99.90
7576;DHT22;3829;50.798;4.358;2023-03-20T08:10:45;8.90;99.90
7576;DHT22;3829;50.798;4.358;2023-03-20T08:13:11;8.90;99.90
7576;DHT22;3829;50.798;4.358;2023-03-20T08:15:37;8.90;99.90
7576;DHT22;3829;50.798;4.358;2023-03-20T08:18:03;9.00;99.90
7576;DHT22;3829;50.798;4.358;2023-03-20T08:20:28;9.00;99.90
7576;DHT22;3829;50.798;4.358;2023-03-20T08:22:56;9.00;99.90
7576;DHT22;3829;50.798;4.358;2023-03-20T08:25:21;9.00;99.90
7576;DHT22;3829;50.798;4.358;2023-03-20T08:27:48;9.10;99.90
7576;DHT22;3829;50.798;4.358;2023-03-20T08:30:14;8.90;99.90
7576;DHT22;3829;50.798;4.358;2023-03-20T08:32:40;8.90;99.90
7576;DHT22;3829;50.798;4.358;2023-03-20T08:35:06;9.00;99.90
7576;DHT22;3829;50.798;4.358;2023-03-20T08:37:33;9.10;99.90
7576;DHT22;3829;50.798;4.358;2023-03-20T08:39:59;9.30;99.90
7576;DHT22;3829;50.798;4.358;2023-03-20T08:42:25;9.20;99.90
7576;DHT22;3829;50.798;4.358;2023-03-20T08:44:51;9.30;99.90
7576;DHT22;3829;50.798;4.358;2023-03-20T08:47:17;9.40;99.90
7576;DHT22;3829;50.798;4.358;2023-03-20T08:49:42;9.50;99.90
7576;DHT22;3829;50.798;4.358;2023-03-20T08:52:08;9.30;99.90
7576;DHT22;3829;50.798;4.358;2023-03-20T08:54:33;9.30;99.90
7576;DHT22;3829;50.798;4.358;2023-03-20T08:56:59;9.20;99.90
7576;DHT22;3829;50.798;4.358;2023-03-20T08:59:25;9.10;99.90
7576;DHT22;3829;50.798;4.358;2023-03-20T09:01:50;9.00;99.90
7576;DHT22;3829;50.798;4.358;2023-03-20T09:04:16;9.10;99.90
7576;DHT22;3829;50.798;4.358;2023-03-20T09:06:43;9.00;99.90
7576;DHT22;3829;50.798;4.358;2023-03-20T09:09:08;9.10;99.90
7576;DHT22;3829;50.798;4.358;2023-03-20T09:11:36;9.10;99.90
7576;DHT22;3829;50.798;4.358;2023-03-20T09:14:01;9.20;99.90
7576;DHT22;3829;50.798;4.358;2023-03-20T09:16:27;9.00;99.90
7576;DHT22;3829;50.798;4.358;2023-03-20T09:18:53;9.10;99.90
7576;DHT22;3829;50.798;4.358;2023-03-20T09:21:18;9.10;99.90
7576;DHT22;3829;50.798;4.358;2023-03-20T09:23:44;9.20;99.90
7576;DHT22;3829;50.798;4.358;2023-03-20T09:26:10;9.40;99.90
7576;DHT22;3829;50.798;4.358;2023-03-20T09:28:35;9.50;99.90
7576;DHT22;3829;50.798;4.358;2023-03-20T09:31:01;9.40;99.90
7576;DHT22;3829;50.798;4.358;2023-03-20T09:33:26;9.50;99.90
7576;DHT22;3829;50.798;4.358;2023-03-20T09:35:52;9.80;99.90
7576;DHT22;3829;50.798;4.358;2023-03-20T09:38:18;10.10;99.90
7576;DHT22;3829;50.798;4.358;2023-03-20T09:40:56;10.00;99.90
7576;DHT22;3829;50.798;4.358;2023-03-20T09:43:43;10.10;99.90
7576;DHT22;3829;50.798;4.358;2023-03-20T09:54:23;10.70;99.90
7576;DHT22;3829;50.798;4.358;2023-03-20T09:56:51;11.20;99.90
7576;DHT22;3829;50.798;4.358;2023-03-20T09:59:18;11.60;99.90
7576;DHT22;3829;50.798;4.358;2023-03-20T10:01:50;11.70;99.90
7576;DHT22;3829;50.798;4.358;2023-03-20T10:04:17;11.90;99.90
7576;DHT22;3829;50.798;4.358;2023-03-20T10:06:43;11.80;99.90
7576;DHT22;3829;50.798;4.358;2023-03-20T10:09:19;11.50;99.90
7576;DHT22;3829;50.798;4.358;2023-03-20T10:15:25;11.40;99.90
7576;DHT22;3829;50.798;4.358;2023-03-20T10:18:25;11.40;99.90
7576;DHT22;3829;50.798;4.358;2023-03-20T10:20:59;11.50;99.90
7576;DHT22;3829;50.798;4.358;2023-03-20T10:24:02;11.50;99.90
7576;DHT22;3829;50.798;4.358;2023-03-20T10:26:30;11.90;99.90
7576;DHT22;3829;50.798;4.358;2023-03-20T10:28:59;12.10;99.90
7576;DHT22;3829;50.798;4.358;2023-03-20T10:42:32;12.80;99.90
7576;DHT22;3829;50.798;4.358;2023-03-20T10:45:11;12.90;99.90
7576;DHT22;3829;50.798;4.358;2023-03-20T10:47:41;12.90;99.90
7576;DHT22;3829;50.798;4.358;2023-03-20T10:50:20;12.80;99.90
7576;DHT22;3829;50.798;4.358;2023-03-20T10:52:48;12.40;99.90
7576;DHT22;3829;50.798;4.358;2023-03-20T10:57:51;12.70;99.90
7576;DHT22;3829;50.798;4.358;2023-03-20T11:00:22;13.00;99.90
7576;DHT22;3829;50.798;4.358;2023-03-20T11:02:48;13.00;99.90
7576;DHT22;3829;50.798;4.358;2023-03-20T11:08:12;12.90;99.90
7576;DHT22;3829;50.798;4.358;2023-03-20T11:10:40;12.90;99.90
7576;DHT22;3829;50.798;4.358;2023-03-20T11:13:34;12.40;99.90
7576;DHT22;3829;50.798;4.358;2023-03-20T11:16:23;12.40;99.90
7576;DHT22;3829;50.798;4.358;2023-03-20T11:18:50;12.40;99.90
7576;DHT22;3829;50.798;4.358;2023-03-20T11:21:25;12.50;99.90
7576;DHT22;3829;50.798;4.358;2023-03-20T11:23:53;12.50;99.90
7576;DHT22;3829;50.798;4.358;2023-03-20T11:26:36;12.50;99.90
7576;DHT22;3829;50.798;4.358;2023-03-20T11:29:05;12.30;99.90
7576;DHT22;3829;50.798;4.358;2023-03-20T11:31:38;12.00;99.90
7576;DHT22;3829;50.798;4.358;2023-03-20T11:36:46;12.10;99.90
7576;DHT22;3829;50.798;4.358;2023-03-20T11:39:30;12.00;99.90
7576;DHT22;3829;50.798;4.358;2023-03-20T11:42:02;12.10;99.90
7576;DHT22;3829;50.798;4.358;2023-03-20T11:44:32;12.20;99.90
7576;DHT22;3829;50.798;4.358;2023-03-20T11:47:09;12.40;99.90
7576;DHT22;3829;50.798;4.358;2023-03-20T11:49:57;12.50;99.90
7576;DHT22;3829;50.798;4.358;2023-03-20T11:52:25;12.40;99.90
7576;DHT22;3829;50.798;4.358;2023-03-20T11:54:57;12.20;99.90
7576;DHT22;3829;50.798;4.358;2023-03-20T11:57:31;12.20;99.90
7576;DHT22;3829;50.798;4.358;2023-03-20T12:00:01;12.60;99.90
7576;DHT22;3829;50.798;4.358;2023-03-20T12:02:27;12.40;99.90
7576;DHT22;3829;50.798;4.358;2023-03-20T12:04:52;12.50;99.90
7576;DHT22;3829;50.798;4.358;2023-03-20T12:07:29;12.70;99.90
7576;DHT22;3829;50.798;4.358;2023-03-20T12:10:10;13.00;99.90
7576;DHT22;3829;50.798;4.358;2023-03-20T12:12:53;13.00;99.90
7576;DHT22;3829;50.798;4.358;2023-03-20T12:15:29;13.30;99.90
7576;DHT22;3829;50.798;4.358;2023-03-20T12:18:03;13.30;99.90
7576;DHT22;3829;50.798;4.358;2023-03-20T12:23:22;13.90;99.90
7576;DHT22;3829;50.798;4.358;2023-03-20T12:25:56;14.30;99.90
7576;DHT22;3829;50.798;4.358;2023-03-20T12:34:06;14.00;99.90
7576;DHT22;3829;50.798;4.358;2023-03-20T12:36:42;14.30;99.90
7576;DHT22;3829;50.798;4.358;2023-03-20T12:39:14;14.00;99.90
7576;DHT22;3829;50.798;4.358;2023-03-20T12:45:04;14.30;99.90
7576;DHT22;3829;50.798;4.358;2023-03-20T12:50:40;14.10;99.90
7576;DHT22;3829;50.798;4.358;2023-03-20T12:55:50;14.40;99.90
7576;DHT22;3829;50.798;4.358;2023-03-20T12:58:42;13.90;99.90
7576;DHT22;3829;50.798;4.358;2023-03-20T13:01:29;14.20;99.90
7576;DHT22;3829;50.798;4.358;2023-03-20T13:06:54;13.90;99.90
7576;DHT22;3829;50.798;4.358;2023-03-20T13:17:59;12.90;99.90
7576;DHT22;3829;50.798;4.358;2023-03-20T13:20:38;13.20;99.90
7576;DHT22;3829;50.798;4.358;2023-03-20T13:23:17;13.50;99.90
7576;DHT22;3829;50.798;4.358;2023-03-20T13:37:35;13.10;99.90
7576;DHT22;3829;50.798;4.358;2023-03-20T13:40:04;13.20;99.90
7576;DHT22;3829;50.798;4.358;2023-03-20T13:42:44;13.60;99.90
7576;DHT22;3829;50.798;4.358;2023-03-20T13:45:39;13.70;99.90
7576;DHT22;3829;50.798;4.358;2023-03-20T13:48:27;13.60;99.90
7576;DHT22;3829;50.798;4.358;2023-03-20T14:03:07;13.40;99.90
7576;DHT22;3829;50.798;4.358;2023-03-20T14:05:39;13.20;99.90
7576;DHT22;3829;50.798;4.358;2023-03-20T14:13:49;12.60;99.90
7576;DHT22;3829;50.798;4.358;2023-03-20T14:16:17;12.70;99.90
7576;DHT22;3829;50.798;4.358;2023-03-20T14:18:47;12.80;99.90
7576;DHT22;3829;50.798;4.358;2023-03-20T14:21:17;12.60;99.90
7576;DHT22;3829;50.798;4.358;2023-03-20T14:24:00;12.50;99.90
7576;DHT22;3829;50.798;4.358;2023-03-20T14:26:28;12.40;99.90
7576;DHT22;3829;50.798;4.358;2023-03-20T14:31:39;12.60;99.90
7576;DHT22;3829;50.798;4.358;2023-03-20T14:36:59;12.90;99.90
7576;DHT22;3829;50.798;4.358;2023-03-20T14:40:20;12.70;99.90
7576;DHT22;3829;50.798;4.358;2023-03-20T14:42:41;12.60;99.90
7576;DHT22;3829;50.798;4.358;2023-03-20T14:48:03;12.50;99.90
7576;DHT22;3829;50.798;4.358;2023-03-20T14:53:13;12.70;99.90
7576;DHT22;3829;50.798;4.358;2023-03-20T15:01:06;12.60;99.90
7576;DHT22;3829;50.798;4.358;2023-03-20T15:03:33;12.70;99.90
7576;DHT22;3829;50.798;4.358;2023-03-20T15:06:04;12.80;99.90
7576;DHT22;3829;50.798;4.358;2023-03-20T15:08:33;12.80;99.90
7576;DHT22;3829;50.798;4.358;2023-03-20T15:11:06;12.80;99.90
7576;DHT22;3829;50.798;4.358;2023-03-20T15:13:34;12.90;99.90
7576;DHT22;3829;50.798;4.358;2023-03-20T15:16:11;12.80;99.90
7576;DHT22;3829;50.798;4.358;2023-03-20T15:18:45;12.70;99.90
7576;DHT22;3829;50.798;4.358;2023-03-20T15:21:14;12.70;99.90
7576;DHT22;3829;50.798;4.358;2023-03-20T15:23:42;12.60;99.90
7576;DHT22;3829;50.798;4.358;2023-03-20T15:26:07;12.60;99.90
7576;DHT22;3829;50.798;4.358;2023-03-20T15:28:33;12.60;99.90
7576;DHT22;3829;50.798;4.358;2023-03-20T15:31:03;12.70;99.90
7576;DHT22;3829;50.798;4.358;2023-03-20T15:33:39;12.80;99.90
7576;DHT22;3829;50.798;4.358;2023-03-20T15:36:13;12.70;99.90
7576;DHT22;3829;50.798;4.358;2023-03-20T15:38:40;12.60;99.90
7576;DHT22;3829;50.798;4.358;2023-03-20T15:41:06;12.50;99.90
7576;DHT22;3829;50.798;4.358;2023-03-20T15:43:32;12.40;99.90
7576;DHT22;3829;50.798;4.358;2023-03-20T15:45:59;12.30;99.90
7576;DHT22;3829;50.798;4.358;2023-03-20T15:48:25;12.30;99.90
7576;DHT22;3829;50.798;4.358;2023-03-20T15:50:54;12.30;99.90
7576;DHT22;3829;50.798;4.358;2023-03-20T15:53:36;12.40;99.90
7576;DHT22;3829;50.798;4.358;2023-03-20T15:56:07;12.50;99.90
7576;DHT22;3829;50.798;4.358;2023-03-20T15:58:34;12.40;99.90
7576;DHT22;3829;50.798;4.358;2023-03-20T16:01:02;12.50;99.90
7576;DHT22;3829;50.798;4.358;2023-03-20T16:03:28;12.60;99.90
7576;DHT22;3829;50.798;4.358;2023-03-20T16:05:58;12.70;99.90
7576;DHT22;3829;50.798;4.358;2023-03-20T16:08:30;12.60;99.90
7576;DHT22;3829;50.798;4.358;2023-03-20T16:13:24;12.60;99.90
7576;DHT22;3829;50.798;4.358;2023-03-20T16:15:50;12.70;99.90
7576;DHT22;3829;50.798;4.358;2023-03-20T16:18:18;12.70;99.90
7576;DHT22;3829;50.798;4.358;2023-03-20T16:20:53;12.70;99.90
7576;DHT22;3829;50.798;4.358;2023-03-20T16:23:38;12.70;99.90
7576;DHT22;3829;50.798;4.358;2023-03-20T16:26:06;12.50;99.90
7576;DHT22;3829;50.798;4.358;2023-03-20T16:28:35;12.60;99.90
7576;DHT22;3829;50.798;4.358;2023-03-20T16:31:12;12.40;99.90
7576;DHT22;3829;50.798;4.358;2023-03-20T16:33:40;12.40;99.90
7576;DHT22;3829;50.798;4.358;2023-03-20T16:36:07;12.50;99.90
7576;DHT22;3829;50.798;4.358;2023-03-20T16:38:35;12.50;99.90
7576;DHT22;3829;50.798;4.358;2023-03-20T16:41:34;12.50;99.90
7576;DHT22;3829;50.798;4.358;2023-03-20T16:44:28;12.70;99.90
7576;DHT22;3829;50.798;4.358;2023-03-20T16:52:12;12.70;99.90
7576;DHT22;3829;50.798;4.358;2023-03-20T16:54:38;12.60;99.90
7576;DHT22;3829;50.798;4.358;2023-03-20T16:57:12;12.60;99.90
7576;DHT22;3829;50.798;4.358;2023-03-20T16:59:39;12.60;99.90
7576;DHT22;3829;50.798;4.358;2023-03-20T17:02:11;12.60;99.90
7576;DHT22;3829;50.798;4.358;2023-03-20T17:04:46;12.70;99.90
7576;DHT22;3829;50.798;4.358;2023-03-20T17:09:55;12.40;99.90
7576;DHT22;3829;50.798;4.358;2023-03-20T17:12:24;12.20;99.90
7576;DHT22;3829;50.798;4.358;2023-03-20T17:14:50;12.10;99.90
7576;DHT22;3829;50.798;4.358;2023-03-20T17:17:20;12.00;99.90
7576;DHT22;3829;50.798;4.358;2023-03-20T17:19:47;12.00;99.90
7576;DHT22;3829;50.798;4.358;2023-03-20T17:22:32;12.00;99.90
7576;DHT22;3829;50.798;4.358;2023-03-20T17:24:58;12.00;99.90
7576;DHT22;3829;50.798;4.358;2023-03-20T17:27:24;12.00;99.90
7576;DHT22;3829;50.798;4.358;2023-03-20T17:29:51;11.90;99.90
7576;DHT22;3829;50.798;4.358;2023-03-20T17:32:20;12.00;99.90
7576;DHT22;3829;50.798;4.358;2023-03-20T17:34:49;12.10;99.90
7576;DHT22;3829;50.798;4.358;2023-03-20T17:37:27;12.10;99.90
7576;DHT22;3829;50.798;4.358;2023-03-20T17:39:53;12.10;99.90
7576;DHT22;3829;50.798;4.358;2023-03-20T17:42:23;12.10;99.90
7576;DHT22;3829;50.798;4.358;2023-03-20T17:44:51;12.10;99.90
7576;DHT22;3829;50.798;4.358;2023-03-20T17:47:20;12.10;99.90
7576;DHT22;3829;50.798;4.358;2023-03-20T17:49:46;12.20;99.90
7576;DHT22;3829;50.798;4.358;2023-03-20T17:52:14;12.20;99.90
7576;DHT22;3829;50.798;4.358;2023-03-20T17:54:43;12.10;99.90
7576;DHT22;3829;50.798;4.358;2023-03-20T17:57:31;12.10;99.90
7576;DHT22;3829;50.798;4.358;2023-03-20T17:59:58;11.90;99.90
7576;DHT22;3829;50.798;4.358;2023-03-20T18:02:25;11.80;99.90
7576;DHT22;3829;50.798;4.358;2023-03-20T18:04:51;11.80;99.90
7576;DHT22;3829;50.798;4.358;2023-03-20T18:07:17;11.70;99.90
7576;DHT22;3829;50.798;4.358;2023-03-20T18:09:44;11.60;99.90
7576;DHT22;3829;50.798;4.358;2023-03-20T18:12:12;11.60;99.90
7576;DHT22;3829;50.798;4.358;2023-03-20T18:14:38;11.50;99.90
7576;DHT22;3829;50.798;4.358;2023-03-20T18:17:04;11.60;99.90
7576;DHT22;3829;50.798;4.358;2023-03-20T18:19:30;11.50;99.90
7576;DHT22;3829;50.798;4.358;2023-03-20T18:21:57;11.60;99.90
7576;DHT22;3829;50.798;4.358;2023-03-20T18:24:23;11.60;99.90
7576;DHT22;3829;50.798;4.358;2023-03-20T18:26:52;11.50;99.90
7576;DHT22;3829;50.798;4.358;2023-03-20T18:29:18;11.50;99.90
7576;DHT22;3829;50.798;4.358;2023-03-20T18:31:44;11.40;99.90
7576;DHT22;3829;50.798;4.358;2023-03-20T18:34:10;11.40;99.90
7576;DHT22;3829;50.798;4.358;2023-03-20T18:36:35;11.40;99.90
7576;DHT22;3829;50.798;4.358;2023-03-20T18:39:02;11.30;99.90
7576;DHT22;3829;50.798;4.358;2023-03-20T18:41:29;11.30;99.90
7576;DHT22;3829;50.798;4.358;2023-03-20T18:43:54;11.40;99.90
7576;DHT22;3829;50.798;4.358;2023-03-20T18:46:21;11.40;99.90
7576;DHT22;3829;50.798;4.358;2023-03-20T18:48:48;11.40;99.90
7576;DHT22;3829;50.798;4.358;2023-03-20T18:51:15;11.40;99.90
7576;DHT22;3829;50.798;4.358;2023-03-20T18:53:41;11.30;99.90
7576;DHT22;3829;50.798;4.358;2023-03-20T18:56:25;11.30;99.90
7576;DHT22;3829;50.798;4.358;2023-03-20T18:58:52;11.30;99.90